Time;durP1;ratioP1;P1;durP2;ratioP2;P2;SDS_P1;SDS_P2;PMS_P1;PMS_P2;Temp;Humidity;BMP_temperature;BMP_pressure;BME280_temperature;BME280_humidity;BME280_pressure;Samples;Min_cycle;Max_cycle;Signal;HPM_P1;HPM_P2
2021/12/25 00:00:11;;;;;;;2.80;2.60;;;17.40;57.00;18.20;99614.00;;;;4947395;28;20205;-40
2021/12/25 00:02:37;;;;;;;4.73;2.60;;;17.30;57.10;18.20;99613.00;;;;4948135;28;20245;-40
2021/12/25 00:05:03;;;;;;;3.23;2.60;;;17.40;57.30;18.20;99613.00;;;;4948498;28;20204;-41
2021/12/25 00:07:29;;;;;;;2.90;2.60;;;17.30;57.10;18.20;99616.00;;;;4948121;28;20256;-40
2021/12/25 00:09:55;;;;;;;2.80;2.57;;;17.30;57.20;18.20;99617.00;;;;4948543;28;20810;-40
2021/12/25 00:12:20;;;;;;;3.00;2.70;;;17.30;57.20;18.20;99592.00;;;;4948428;28;20170;-40
2021/12/25 00:14:46;;;;;;;2.60;2.40;;;17.30;57.10;18.20;99610.00;;;;4947210;29;20205;-39
2021/12/25 00:17:12;;;;;;;2.80;2.50;;;17.30;57.10;18.20;99616.00;;;;4947958;28;20181;-40
2021/12/25 00:19:37;;;;;;;2.30;2.20;;;17.30;57.00;18.20;99616.00;;;;4948500;28;20174;-41
2021/12/25 00:22:03;;;;;;;2.60;2.30;;;17.30;57.30;18.20;99608.00;;;;4948654;28;20177;-40
2021/12/25 00:24:29;;;;;;;3.23;2.50;;;17.20;57.10;18.20;99622.00;;;;4948458;28;20865;-40
2021/12/25 00:27:11;;;;;;;2.60;2.40;;;17.20;57.10;18.20;99610.00;;;;4948112;28;20184;-40
2021/12/25 00:29:53;;;;;;;2.43;2.23;;;17.30;57.20;18.20;99602.00;;;;4948262;28;20186;-40
2021/12/25 00:34:48;;;;;;;2.53;2.33;;;17.20;56.90;18.20;99611.00;;;;4948208;28;20189;-40
2021/12/25 00:37:13;;;;;;;2.63;2.30;;;17.20;57.00;18.20;99607.00;;;;4948067;28;20858;-40
2021/12/25 00:39:39;;;;;;;2.37;2.27;;;17.20;57.10;18.10;99606.00;;;;4948374;28;20174;-38
2021/12/25 00:42:06;;;;;;;2.77;2.33;;;17.20;57.10;18.10;99594.00;;;;4948023;28;20185;-39
2021/12/25 00:44:32;;;;;;;2.80;2.47;;;17.20;57.10;18.10;99602.00;;;;4947911;28;20667;-39
2021/12/25 00:46:58;;;;;;;2.20;2.10;;;17.10;57.10;18.10;99605.00;;;;4947711;28;20699;-38
2021/12/25 00:49:25;;;;;;;2.30;2.13;;;17.10;57.00;18.10;99536.00;;;;4948276;28;20202;-39
2021/12/25 00:51:51;;;;;;;2.20;2.10;;;17.10;57.10;18.10;99589.00;;;;4946970;29;20174;-39
2021/12/25 00:54:16;;;;;;;2.50;2.30;;;17.10;57.00;18.10;99603.00;;;;4946730;29;20186;-39
2021/12/25 00:56:42;;;;;;;2.43;2.27;;;17.10;57.10;18.10;99583.00;;;;4947790;28;20299;-39
2021/12/25 00:59:08;;;;;;;2.30;2.20;;;17.10;57.20;18.00;99586.00;;;;4946704;29;20864;-39
2021/12/25 01:01:34;;;;;;;2.20;2.10;;;17.00;57.10;18.00;99596.00;;;;4948069;28;20174;-38
2021/12/25 01:04:00;;;;;;;2.60;2.40;;;17.00;57.10;18.00;99603.00;;;;4948009;28;20159;-40
2021/12/25 01:06:25;;;;;;;2.17;2.07;;;17.00;57.10;18.00;99606.00;;;;4947526;28;20672;-40
2021/12/25 01:08:51;;;;;;;2.43;2.23;;;17.00;57.00;18.00;99605.00;;;;4946470;29;20201;-40
2021/12/25 01:11:17;;;;;;;2.30;2.10;;;17.00;57.10;18.00;99600.00;;;;4947624;28;20181;-39
2021/12/25 01:13:49;;;;;;;2.20;2.10;;;17.00;57.10;18.00;99601.00;;;;4947018;28;20178;-40
2021/12/25 01:24:18;;;;;;;2.10;2.00;;;16.90;57.20;17.90;99600.00;;;;4947607;28;20173;-39
2021/12/25 01:27:18;;;;;;;2.43;2.23;;;16.90;57.10;17.90;99606.00;;;;4947070;28;20596;-40
2021/12/25 01:37:40;;;;;;;2.40;2.20;;;16.90;57.30;17.90;99597.00;;;;4946408;28;20166;-40
2021/12/25 01:48:01;;;;;;;4.20;2.20;;;16.70;57.60;17.80;99600.00;;;;4946768;29;20790;-40
2021/12/25 01:50:27;;;;;;;2.27;2.07;;;16.70;57.20;17.80;99601.00;;;;4946917;28;20165;-40
2021/12/25 01:52:54;;;;;;;3.77;2.10;;;16.70;57.30;17.80;99614.00;;;;4946959;28;20170;-40
2021/12/25 01:55:26;;;;;;;2.13;2.03;;;16.70;57.30;17.80;99605.00;;;;4946387;28;20255;-40
2021/12/25 01:57:53;;;;;;;2.63;2.10;;;16.70;57.30;17.70;99614.00;;;;4946955;28;20310;-40
2021/12/25 02:00:25;;;;;;;2.60;2.00;;;16.70;57.10;17.70;99606.00;;;;4946801;28;20724;-40
2021/12/25 02:02:50;;;;;;;2.17;2.07;;;16.70;57.10;17.70;99605.00;;;;4946897;28;20178;-40
2021/12/25 02:05:16;;;;;;;2.13;2.03;;;16.70;57.10;17.70;99613.00;;;;4946835;28;20224;-41
2021/12/25 02:07:42;;;;;;;3.77;2.20;;;16.70;57.10;17.70;99600.00;;;;4946243;28;20338;-40
2021/12/25 02:10:09;;;;;;;2.30;2.10;;;16.70;56.80;17.70;99596.00;;;;4947060;28;20532;-40
2021/12/25 02:12:35;;;;;;;4.67;2.30;;;16.60;57.00;17.70;99596.00;;;;4946926;28;20178;-40
2021/12/25 02:15:07;;;;;;;1.90;1.80;;;16.60;56.70;17.70;99593.00;;;;4947028;28;20792;-40
2021/12/25 02:17:54;;;;;;;2.43;2.10;;;16.60;56.80;17.70;99599.00;;;;4946618;28;20159;-41
2021/12/25 02:20:29;;;;;;;2.50;2.30;;;16.60;56.70;17.60;99594.00;;;;4946321;28;20178;-40
2021/12/25 02:23:01;;;;;;;2.30;2.13;;;16.60;56.60;17.60;99603.00;;;;4946904;28;20184;-40
2021/12/25 02:25:28;;;;;;;2.50;2.30;;;16.60;56.50;17.60;99609.00;;;;4949308;28;20676;-40
2021/12/25 02:27:54;;;;;;;2.60;2.40;;;16.60;56.40;17.60;99600.00;;;;4950389;28;20205;-39
2021/12/25 02:30:19;;;;;;;2.33;2.13;;;16.50;56.40;17.60;99602.00;;;;4950194;28;20180;-41
2021/12/25 02:32:45;;;;;;;2.67;2.40;;;16.50;56.40;17.60;99605.00;;;;4949897;28;20233;-39
2021/12/25 02:35:13;;;;;;;2.60;2.40;;;16.60;56.40;17.50;99600.00;;;;4950374;28;20190;-39
2021/12/25 02:37:39;;;;;;;2.73;2.53;;;16.50;56.30;17.50;99608.00;;;;4950178;28;20261;-39
2021/12/25 02:40:07;;;;;;;2.60;2.40;;;16.50;56.20;17.50;99600.00;;;;4949082;29;20166;-39
2021/12/25 02:42:34;;;;;;;2.70;2.50;;;16.50;56.30;17.50;99597.00;;;;4950032;28;20342;-38
2021/12/25 02:45:00;;;;;;;2.53;2.33;;;16.40;56.20;17.50;99590.00;;;;4949657;28;20764;-38
2021/12/25 02:47:29;;;;;;;2.70;2.50;;;16.40;56.80;17.50;99589.00;;;;4949427;28;20268;-40
2021/12/25 02:49:55;;;;;;;2.87;2.67;;;16.40;55.90;17.40;99577.00;;;;4950276;28;20491;-38
2021/12/25 02:52:21;;;;;;;2.63;2.43;;;16.40;56.00;17.40;99575.00;;;;4949955;28;20233;-39
2021/12/25 02:54:46;;;;;;;2.70;2.50;;;16.40;56.00;17.40;99577.00;;;;4949657;28;20330;-39
2021/12/25 02:57:12;;;;;;;2.80;2.60;;;16.40;56.10;17.40;99590.00;;;;4949259;28;20656;-40
2021/12/25 02:59:38;;;;;;;2.60;2.40;;;16.40;55.90;17.40;99570.00;;;;4949662;28;20169;-41
2021/12/25 03:02:11;;;;;;;2.60;2.40;;;16.40;55.90;17.30;99577.00;;;;4949818;28;20276;-40
2021/12/25 03:04:41;;;;;;;2.70;2.50;;;16.30;55.80;17.30;99588.00;;;;4955877;28;20190;-40
2021/12/25 03:07:07;;;;;;;2.83;2.40;;;16.30;55.80;17.30;99580.00;;;;4954101;29;20169;-40
2021/12/25 03:09:33;;;;;;;3.07;2.40;;;16.30;55.80;17.30;99519.00;;;;4949315;28;20205;-40
2021/12/25 03:11:59;;;;;;;2.60;2.40;;;16.30;55.80;17.30;99585.00;;;;4949651;28;20487;-40
2021/12/25 03:14:37;;;;;;;3.13;2.50;;;16.30;55.80;17.20;99582.00;;;;4949178;28;20226;-40
2021/12/25 03:17:03;;;;;;;2.83;2.20;;;16.30;55.70;17.20;99572.00;;;;4949072;28;20253;-40
2021/12/25 03:19:33;;;;;;;2.50;2.30;;;16.30;55.80;17.20;99576.00;;;;4949352;28;20204;-40
2021/12/25 03:22:00;;;;;;;2.40;2.30;;;16.20;55.70;17.20;99579.00;;;;4949143;28;20393;-40
2021/12/25 03:24:27;;;;;;;2.27;2.17;;;16.20;55.60;17.20;99575.00;;;;4949382;28;20178;-40
2021/12/25 03:26:55;;;;;;;2.27;2.17;;;16.20;55.40;17.10;99579.00;;;;4948852;28;20186;-40
2021/12/25 03:29:21;;;;;;;2.33;2.13;;;16.20;55.50;17.10;99587.00;;;;4949324;28;20208;-40
2021/12/25 03:31:47;;;;;;;2.40;2.20;;;16.20;55.50;17.10;99584.00;;;;4949078;28;20166;-40
2021/12/25 03:34:13;;;;;;;2.30;2.20;;;16.20;55.50;17.10;99584.00;;;;4948858;28;20556;-40
2021/12/25 03:36:38;;;;;;;2.20;2.10;;;16.20;55.30;17.10;99583.00;;;;4948015;28;20173;-40
2021/12/25 03:39:06;;;;;;;2.13;2.03;;;16.10;55.40;17.10;99595.00;;;;4949114;28;20178;-40
2021/12/25 03:41:31;;;;;;;2.30;2.17;;;16.20;55.20;17.00;99591.00;;;;4948987;28;20174;-40
2021/12/25 03:43:57;;;;;;;2.37;2.20;;;16.10;55.10;17.00;99592.00;;;;4948918;28;20599;-38
2021/12/25 03:46:23;;;;;;;2.10;2.00;;;16.10;55.20;17.00;99590.00;;;;4948222;28;20198;-38
2021/12/25 03:59:33;;;;;;;2.33;2.20;;;16.00;55.00;16.90;99596.00;;;;4948308;29;20261;-40
2021/12/25 04:02:04;;;;;;;2.40;2.20;;;16.00;55.00;16.90;99594.00;;;;4948575;28;20173;-40
2021/12/25 04:07:04;;;;;;;2.30;2.20;;;16.00;55.10;16.90;99588.00;;;;4948336;28;20220;-40
2021/12/25 04:09:31;;;;;;;2.10;2.00;;;16.00;55.10;16.90;99597.00;;;;4948661;28;20201;-40
2021/12/25 04:12:10;;;;;;;2.30;2.20;;;16.00;55.10;16.90;99596.00;;;;4951208;28;20231;-40
2021/12/25 04:14:36;;;;;;;2.27;2.17;;;15.90;55.00;16.90;99601.00;;;;4948282;28;20193;-40
2021/12/25 04:17:02;;;;;;;2.30;2.20;;;15.90;55.00;16.90;99599.00;;;;4947526;28;20166;-40
2021/12/25 04:19:27;;;;;;;2.23;2.13;;;15.90;55.00;16.90;99597.00;;;;4948525;28;20657;-40
2021/12/25 04:24:19;;;;;;;2.73;2.20;;;15.90;55.00;16.80;99596.00;;;;4948146;28;20201;-39
2021/12/25 04:26:46;;;;;;;2.30;2.20;;;15.90;55.10;16.80;99601.00;;;;4947903;28;20206;-39
2021/12/25 04:29:37;;;;;;;2.20;2.10;;;15.80;54.90;16.80;99599.00;;;;4948196;28;20250;-40
2021/12/25 05:04:59;;;;;;;1.60;1.50;;;15.80;55.40;16.70;99623.00;;;;4947380;29;20208;-40
2021/12/25 05:07:25;;;;;;;1.80;1.70;;;15.80;55.50;16.70;99628.00;;;;4952371;28;20177;-39
2021/12/25 05:09:51;;;;;;;1.70;1.60;;;15.70;55.30;16.70;99628.00;;;;4966683;28;20588;-39
2021/12/25 05:12:17;;;;;;;1.40;1.30;;;15.80;55.40;16.70;99638.00;;;;4967021;28;20169;-39
2021/12/25 05:14:42;;;;;;;1.70;1.60;;;15.70;55.30;16.70;99638.00;;;;4966494;28;20227;-39
2021/12/25 05:17:10;;;;;;;1.50;1.40;;;15.70;55.30;16.70;99634.00;;;;4966271;28;20224;-39
2021/12/25 05:19:36;;;;;;;1.87;1.50;;;15.70;55.30;16.70;99626.00;;;;4967084;28;20165;-39
2021/12/25 05:22:02;;;;;;;2.10;1.50;;;15.70;55.50;16.70;99633.00;;;;4966870;28;20779;-39
2021/12/25 05:24:28;;;;;;;1.50;1.40;;;15.60;55.50;16.70;99629.00;;;;4966826;28;20702;-39
2021/12/25 05:26:57;;;;;;;1.40;1.30;;;15.70;55.60;16.70;99633.00;;;;4966185;28;20467;-39
2021/12/25 05:29:25;;;;;;;1.60;1.50;;;15.70;55.60;16.70;99505.00;;;;4966783;28;20241;-39
2021/12/25 05:31:51;;;;;;;1.43;1.23;;;15.70;55.40;16.70;99633.00;;;;4966360;28;20176;-39
2021/12/25 05:34:17;;;;;;;1.60;1.50;;;15.70;55.70;16.60;99633.00;;;;4966461;28;20173;-39
2021/12/25 05:36:43;;;;;;;1.83;1.30;;;15.60;55.60;16.60;99632.00;;;;4966213;28;20289;-39
2021/12/25 05:39:12;;;;;;;1.87;1.60;;;15.60;55.70;16.60;99636.00;;;;4964843;28;20180;-39
2021/12/25 05:41:38;;;;;;;1.60;1.50;;;15.60;55.90;16.60;99637.00;;;;4966326;28;20176;-39
2021/12/25 05:44:04;;;;;;;1.63;1.53;;;15.60;55.70;16.60;99640.00;;;;4966316;28;20558;-39
2021/12/25 05:46:29;;;;;;;2.77;1.53;;;15.60;55.80;16.60;99632.00;;;;4965611;28;20216;-39
2021/12/25 05:48:55;;;;;;;1.53;1.43;;;15.60;56.10;16.60;99645.00;;;;4966288;28;20212;-39
2021/12/25 05:51:21;;;;;;;1.60;1.40;;;15.60;56.00;16.60;99631.00;;;;4965952;28;20421;-39
2021/12/25 05:53:47;;;;;;;1.70;1.60;;;15.60;56.00;16.60;99634.00;;;;4966383;28;20177;-39
2021/12/25 05:56:12;;;;;;;2.83;1.43;;;15.60;56.00;16.60;99644.00;;;;4965744;28;20201;-39
2021/12/25 05:58:38;;;;;;;1.13;1.13;;;15.60;56.00;16.60;99635.00;;;;4965916;28;20177;-39
2021/12/25 06:01:04;;;;;;;2.33;1.50;;;15.60;55.90;16.60;99634.00;;;;4969878;28;20185;-39
2021/12/25 06:03:30;;;;;;;4.30;1.40;;;15.60;56.00;16.60;99636.00;;;;4969807;28;20173;-39
2021/12/25 06:05:57;;;;;;;1.93;1.27;;;15.50;56.00;16.60;99637.00;;;;4969597;28;20691;-39
2021/12/25 06:08:24;;;;;;;1.53;1.43;;;15.60;56.10;16.50;99649.00;;;;4960202;28;20205;-38
2021/12/25 06:10:50;;;;;;;1.30;1.30;;;15.50;55.80;16.60;99636.00;;;;4969730;28;20347;-40
2021/12/25 06:13:19;;;;;;;1.40;1.30;;;15.50;55.90;16.60;99647.00;;;;4968452;28;20165;-40
2021/12/25 06:15:45;;;;;;;1.60;1.33;;;15.50;56.20;16.60;99656.00;;;;4968162;28;20197;-39
2021/12/25 06:18:11;;;;;;;2.43;1.37;;;15.50;56.40;16.60;99664.00;;;;4969908;28;20177;-40
2021/12/25 06:20:37;;;;;;;1.13;1.13;;;15.70;56.40;16.60;99652.00;;;;4970328;28;20200;-39
2021/12/25 06:23:02;;;;;;;1.27;1.27;;;15.80;56.20;16.70;99662.00;;;;4969817;28;20177;-39
2021/12/25 06:25:28;;;;;;;3.47;1.30;;;16.10;56.00;16.80;99661.00;;;;4969197;28;20613;-39
2021/12/25 06:27:54;;;;;;;1.00;1.00;;;16.30;55.70;16.90;99663.00;;;;4968773;28;20169;-39
2021/12/25 06:30:19;;;;;;;1.83;1.30;;;16.60;55.40;17.10;99666.00;;;;4970009;28;20161;-40
2021/12/25 06:32:45;;;;;;;2.63;1.30;;;17.00;55.20;17.20;99671.00;;;;4969888;28;20169;-39
2021/12/25 06:35:12;;;;;;;1.47;1.10;;;17.20;54.80;17.40;99677.00;;;;4969476;28;20706;-39
2021/12/25 06:37:40;;;;;;;1.40;1.30;;;17.40;54.60;17.50;99674.00;;;;4968720;28;20718;-38
2021/12/25 06:40:07;;;;;;;1.27;1.17;;;17.50;54.60;17.60;99679.00;;;;4969209;28;20197;-38
2021/12/25 06:42:33;;;;;;;1.57;1.20;;;17.70;54.60;17.80;99682.00;;;;4969256;28;20184;-38
2021/12/25 06:44:59;;;;;;;1.27;1.17;;;17.70;54.40;17.90;99681.00;;;;4969367;28;20201;-38
2021/12/25 06:47:25;;;;;;;0.80;0.80;;;17.80;54.40;17.90;99687.00;;;;4968929;28;20189;-39
2021/12/25 06:49:50;;;;;;;1.23;1.13;;;17.90;54.30;18.00;99681.00;;;;4968909;28;20267;-39
2021/12/25 06:52:16;;;;;;;1.10;1.00;;;18.00;54.40;18.10;99687.00;;;;4968956;28;20696;-39
2021/12/25 06:54:42;;;;;;;1.10;1.10;;;18.00;54.40;18.10;99693.00;;;;4968277;28;20193;-39
2021/12/25 06:57:07;;;;;;;1.10;1.10;;;18.00;54.50;18.20;99690.00;;;;4968731;28;20212;-39
2021/12/25 06:59:33;;;;;;;2.43;1.10;;;18.00;54.50;18.20;99701.00;;;;4968727;28;20173;-39
2021/12/25 07:01:59;;;;;;;0.93;0.93;;;18.00;54.60;18.30;99695.00;;;;4968384;28;20188;-39
2021/12/25 07:04:24;;;;;;;0.60;0.60;;;18.00;54.80;18.30;99699.00;;;;4968144;28;20169;-39
2021/12/25 07:06:50;;;;;;;0.90;0.90;;;18.00;54.90;18.30;99704.00;;;;4968753;28;20521;-39
2021/12/25 07:09:16;;;;;;;0.80;0.80;;;18.00;55.10;18.30;99714.00;;;;4968431;28;20212;-39
2021/12/25 07:11:43;;;;;;;1.30;1.00;;;17.90;55.00;18.10;99712.00;;;;4967369;28;20173;-39
2021/12/25 07:14:10;;;;;;;0.90;0.90;;;17.80;55.00;18.40;99712.00;;;;4968356;28;20229;-39
2021/12/25 07:16:36;;;;;;;1.20;1.10;;;17.80;55.10;18.40;99720.00;;;;4968377;28;20746;-40
2021/12/25 07:19:02;;;;;;;0.80;0.80;;;17.80;55.20;18.40;99725.00;;;;4968106;28;20532;-40
2021/12/25 07:21:29;;;;;;;1.00;1.00;;;17.80;55.30;18.40;99728.00;;;;4968313;28;20174;-39
2021/12/25 07:23:54;;;;;;;0.90;0.90;;;17.80;55.30;18.40;99736.00;;;;4967896;28;20165;-38
2021/12/25 07:26:21;;;;;;;0.80;0.80;;;17.70;55.30;18.40;99732.00;;;;4968113;28;20208;-38
2021/12/25 07:28:47;;;;;;;0.60;0.60;;;17.70;55.30;18.30;99728.00;;;;4968117;28;20711;-39
2021/12/25 07:31:12;;;;;;;1.10;1.10;;;17.70;55.30;18.30;99739.00;;;;4967870;28;20407;-38
2021/12/25 07:33:40;;;;;;;1.13;1.03;;;17.60;55.40;18.30;99747.00;;;;4951858;28;20644;-38
2021/12/25 07:36:07;;;;;;;1.40;1.30;;;17.60;55.50;18.30;99744.00;;;;4948579;28;20194;-39
2021/12/25 07:38:32;;;;;;;0.80;0.80;;;17.60;55.60;18.30;99747.00;;;;4948750;29;20173;-39
2021/12/25 07:40:58;;;;;;;1.20;0.90;;;17.60;55.70;18.30;99752.00;;;;4948652;28;20913;-38
2021/12/25 07:43:24;;;;;;;0.77;0.77;;;17.50;55.70;18.20;99671.00;;;;4948109;28;20173;-40
2021/12/25 07:45:51;;;;;;;1.13;1.13;;;17.50;55.80;18.20;99742.00;;;;4948522;28;20388;-39
2021/12/25 07:48:19;;;;;;;1.00;1.00;;;17.50;55.80;18.20;99752.00;;;;4953285;29;20320;-39
2021/12/25 07:50:45;;;;;;;0.70;0.70;;;17.40;55.80;18.20;99757.00;;;;4952943;29;20180;-39
2021/12/25 07:53:11;;;;;;;1.27;1.17;;;17.40;55.80;18.20;99763.00;;;;4948134;29;20170;-39
2021/12/25 07:55:37;;;;;;;1.60;1.10;;;17.40;55.90;18.10;99755.00;;;;4948234;29;20557;-39
2021/12/25 07:58:03;;;;;;;0.90;0.90;;;17.30;55.90;18.10;99759.00;;;;4947435;29;20249;-39
2021/12/25 08:00:29;;;;;;;1.00;1.00;;;17.30;56.00;18.10;99770.00;;;;4948855;28;20181;-39
2021/12/25 08:02:54;;;;;;;1.00;1.00;;;17.30;56.00;18.10;99776.00;;;;4948335;29;20193;-39
2021/12/25 08:05:20;;;;;;;1.10;1.10;;;17.20;56.00;18.10;99778.00;;;;4948547;28;20189;-39
2021/12/25 08:07:47;;;;;;;0.90;0.90;;;17.20;56.00;18.00;99777.00;;;;4947848;28;20664;-39
2021/12/25 08:10:13;;;;;;;1.50;0.90;;;17.20;56.10;18.00;99776.00;;;;4966294;28;20647;-39
2021/12/25 08:12:56;;;;;;;1.57;1.07;;;17.20;56.50;17.70;99774.00;;;;4967670;28;20178;-39
2021/12/25 08:15:31;;;;;;;0.77;0.77;;;17.10;56.40;18.00;99786.00;;;;4967978;28;20502;-39
2021/12/25 08:17:57;;;;;;;0.97;0.97;;;17.10;56.30;17.90;99781.00;;;;4967414;28;20199;-39
2021/12/25 08:20:23;;;;;;;1.67;1.03;;;17.10;56.30;17.90;99779.00;;;;4967573;28;20184;-39
2021/12/25 08:22:49;;;;;;;1.03;0.93;;;17.00;56.20;17.90;99786.00;;;;4967263;28;20574;-39
2021/12/25 08:25:15;;;;;;;1.03;1.03;;;17.10;56.40;17.90;99788.00;;;;4967479;28;20185;-39
2021/12/25 08:27:42;;;;;;;1.10;1.10;;;17.00;56.40;17.90;99791.00;;;;4966679;28;20180;-39
2021/12/25 08:30:10;;;;;;;1.03;0.93;;;17.00;56.70;17.80;99797.00;;;;4967601;28;20585;-39
2021/12/25 08:32:38;;;;;;;2.50;1.50;;;16.90;56.70;17.80;99805.00;;;;4967309;28;20163;-39
2021/12/25 08:35:04;;;;;;;6.27;1.60;;;16.90;57.30;17.80;99801.00;;;;4967335;28;20189;-39
2021/12/25 08:37:31;;;;;;;5.27;1.53;;;16.90;57.70;17.80;99806.00;;;;4965438;28;20177;-38
2021/12/25 08:39:57;;;;;;;4.60;1.63;;;16.90;57.70;17.80;99818.00;;;;4958296;28;20181;-38
2021/12/25 08:42:23;;;;;;;4.83;1.60;;;16.90;57.50;17.80;99808.00;;;;4947809;28;20536;-38
2021/12/25 08:45:05;;;;;;;4.60;1.43;;;17.10;57.40;17.90;99821.00;;;;4946407;28;20228;-38
2021/12/25 08:47:36;;;;;;;3.57;1.30;;;17.40;57.10;18.00;99818.00;;;;4946349;29;20213;-39
2021/12/25 08:50:10;;;;;;;5.00;1.47;;;17.70;56.70;18.10;99817.00;;;;4947812;28;20491;-39
2021/12/25 08:52:35;;;;;;;2.67;1.43;;;18.00;56.40;18.30;99812.00;;;;4948106;29;20150;-39
2021/12/25 08:55:01;;;;;;;3.87;1.70;;;18.20;56.00;18.40;99828.00;;;;4954418;29;20226;-39
2021/12/25 08:57:27;;;;;;;4.33;1.73;;;18.30;55.70;18.50;99828.00;;;;4952883;28;20169;-39
2021/12/25 08:59:54;;;;;;;5.03;1.73;;;18.40;55.40;18.60;99838.00;;;;4947919;28;20177;-40
2021/12/25 09:02:20;;;;;;;2.47;1.70;;;18.50;55.50;18.60;99826.00;;;;4947683;29;20182;-39
2021/12/25 09:04:47;;;;;;;2.77;1.47;;;18.40;55.50;18.70;99826.00;;;;4946322;28;20900;-39
2021/12/25 09:07:13;;;;;;;6.47;1.50;;;18.50;56.10;18.80;99835.00;;;;4964318;28;20260;-39
2021/12/25 09:09:39;;;;;;;5.60;1.70;;;18.50;55.80;18.80;99830.00;;;;4966182;28;20184;-40
2021/12/25 09:12:06;;;;;;;1.90;1.47;;;18.50;56.00;18.80;99827.00;;;;4966129;28;20250;-39
2021/12/25 09:14:31;;;;;;;2.40;1.67;;;18.50;56.10;18.90;99844.00;;;;4963816;28;20197;-39
2021/12/25 09:16:57;;;;;;;4.07;1.70;;;18.40;55.80;18.60;99850.00;;;;4967277;28;20184;-38
2021/12/25 09:19:23;;;;;;;4.63;1.50;;;18.40;55.80;18.90;99844.00;;;;4969560;28;20213;-38
2021/12/25 09:21:49;;;;;;;5.47;1.70;;;18.50;56.00;18.90;99847.00;;;;4969139;28;20244;-39
2021/12/25 09:24:15;;;;;;;2.67;1.70;;;18.40;56.10;18.90;99840.00;;;;4963204;28;20256;-40
2021/12/25 09:26:42;;;;;;;6.27;1.80;;;18.40;56.10;18.90;99844.00;;;;4950055;28;20198;-40
2021/12/25 09:29:08;;;;;;;7.17;1.70;;;18.30;56.20;18.90;99848.00;;;;4948922;29;20262;-38
2021/12/25 09:31:34;;;;;;;7.43;1.60;;;18.30;56.30;18.90;99854.00;;;;4950456;28;20177;-38
2021/12/25 09:33:59;;;;;;;4.33;1.77;;;18.30;56.60;18.90;99853.00;;;;4951327;28;20179;-40
2021/12/25 09:36:26;;;;;;;4.13;1.80;;;18.20;56.50;18.80;99853.00;;;;4956320;28;20197;-38
2021/12/25 09:38:52;;;;;;;3.57;1.87;;;18.30;56.60;18.80;99864.00;;;;4956598;28;20181;-38
2021/12/25 09:41:18;;;;;;;6.33;1.87;;;18.20;56.40;18.80;99860.00;;;;4956310;28;20226;-38
2021/12/25 09:43:46;;;;;;;8.67;1.90;;;18.10;56.10;18.80;99857.00;;;;4956502;28;20174;-38
2021/12/25 09:46:12;;;;;;;5.90;1.70;;;18.10;56.10;18.80;99869.00;;;;4955756;28;20779;-38
2021/12/25 09:48:38;;;;;;;6.80;2.00;;;18.10;55.90;18.80;99861.00;;;;4956476;28;20201;-38
2021/12/25 09:51:03;;;;;;;4.50;2.10;;;18.10;56.00;18.80;99874.00;;;;4956419;28;20525;-38
2021/12/25 09:53:29;;;;;;;7.83;1.90;;;18.10;56.40;18.70;99863.00;;;;4956545;28;20262;-38
2021/12/25 09:55:55;;;;;;;4.47;1.97;;;18.00;56.40;18.70;99864.00;;;;4956388;28;20189;-40
2021/12/25 09:58:21;;;;;;;4.47;1.90;;;17.90;55.90;18.70;99867.00;;;;4955972;28;20529;-39
2021/12/25 10:00:48;;;;;;;4.83;2.20;;;18.00;55.60;18.70;99858.00;;;;4957922;28;20185;-39
2021/12/25 10:03:14;;;;;;;4.10;1.80;;;17.90;55.30;18.70;99866.00;;;;4958634;28;20226;-39
2021/12/25 10:05:46;;;;;;;3.00;1.90;;;17.90;55.60;18.60;99864.00;;;;4956216;28;20593;-39
2021/12/25 10:08:37;;;;;;;4.33;2.10;;;17.90;55.40;18.60;99884.00;;;;4956530;28;20567;-40
2021/12/25 10:11:04;;;;;;;4.77;1.90;;;17.80;55.10;18.60;99876.00;;;;4956122;28;20174;-39
2021/12/25 10:13:35;;;;;;;2.03;1.80;;;17.80;55.00;18.60;99883.00;;;;4956645;28;20150;-40
2021/12/25 10:16:24;;;;;;;3.30;1.90;;;17.80;55.20;18.60;99884.00;;;;4956186;28;20260;-40
2021/12/25 10:18:51;;;;;;;3.23;1.90;;;17.70;54.90;18.50;99875.00;;;;4956270;28;20220;-39
2021/12/25 10:21:25;;;;;;;3.40;2.20;;;17.70;54.80;18.50;99878.00;;;;4956160;28;20174;-39
2021/12/25 10:24:09;;;;;;;2.70;2.00;;;17.60;54.40;18.40;99882.00;;;;4955797;28;20159;-39
2021/12/25 10:26:36;;;;;;;3.03;2.00;;;17.60;54.20;18.40;99881.00;;;;4956247;28;20173;-39
2021/12/25 10:29:24;;;;;;;2.10;1.90;;;17.50;54.10;18.40;99884.00;;;;4954375;29;20205;-38
2021/12/25 10:31:52;;;;;;;2.83;1.80;;;17.50;54.10;18.30;99883.00;;;;4955950;28;20173;-39
2021/12/25 10:34:21;;;;;;;3.17;1.73;;;17.40;54.00;18.30;99885.00;;;;4956097;28;20197;-38
2021/12/25 10:36:47;;;;;;;3.83;1.90;;;17.40;54.40;18.30;99880.00;;;;4956096;28;20173;-38
2021/12/25 10:39:25;;;;;;;2.07;1.90;;;17.40;54.50;18.20;99880.00;;;;4956034;28;20273;-38
2021/12/25 10:42:02;;;;;;;3.03;1.77;;;17.30;54.50;18.20;99885.00;;;;4956472;28;20189;-38
2021/12/25 10:44:37;;;;;;;2.77;1.90;;;17.30;54.50;18.20;99880.00;;;;4955925;28;20170;-37
2021/12/25 10:47:09;;;;;;;5.17;1.90;;;17.30;54.50;18.20;99883.00;;;;4952680;28;20190;-40
2021/12/25 10:49:41;;;;;;;3.63;1.73;;;17.20;54.30;18.10;99879.00;;;;4953181;28;20209;-39
2021/12/25 10:52:20;;;;;;;3.80;1.80;;;17.20;54.20;18.10;99872.00;;;;4952844;28;20157;-39
2021/12/25 10:55:20;;;;;;;4.03;1.90;;;17.20;54.20;18.10;99883.00;;;;4952597;29;20276;-39
2021/12/25 10:57:57;;;;;;;4.47;2.00;;;17.10;54.20;18.00;99863.00;;;;4953042;29;20256;-39
2021/12/25 11:00:33;;;;;;;3.13;2.00;;;17.10;54.20;18.00;99878.00;;;;4952599;28;20169;-39
2021/12/25 11:03:05;;;;;;;2.47;1.90;;;17.10;54.10;18.00;99872.00;;;;4952677;28;20169;-40
2021/12/25 11:05:32;;;;;;;2.00;1.90;;;17.00;53.90;17.90;99866.00;;;;4952562;28;20190;-39
2021/12/25 11:08:13;;;;;;;1.80;1.70;;;17.00;53.80;17.90;99862.00;;;;4952214;28;20184;-39
2021/12/25 11:11:09;;;;;;;2.17;1.90;;;17.00;53.90;17.90;99871.00;;;;4952465;28;20155;-39
2021/12/25 11:13:50;;;;;;;3.67;1.80;;;17.00;53.90;17.90;99876.00;;;;4952172;28;20713;-39
2021/12/25 11:16:30;;;;;;;2.40;1.80;;;16.90;53.60;17.80;99868.00;;;;4952234;28;20244;-39
2021/12/25 11:19:09;;;;;;;3.40;1.90;;;16.90;53.70;17.80;99863.00;;;;4952107;29;20196;-38
2021/12/25 11:21:57;;;;;;;2.77;2.03;;;16.80;53.70;17.80;99871.00;;;;4952245;29;20235;-39
2021/12/25 11:24:31;;;;;;;5.07;2.10;;;16.80;53.80;17.80;99865.00;;;;4952195;28;20181;-39
2021/12/25 11:27:03;;;;;;;5.73;2.23;;;16.80;53.90;17.70;99867.00;;;;4952226;28;20245;-39
2021/12/25 11:29:30;;;;;;;5.27;2.30;;;16.80;54.10;17.70;99874.00;;;;4952220;28;20202;-39
2021/12/25 11:31:56;;;;;;;4.97;2.27;;;16.80;54.40;17.70;99874.00;;;;4951849;28;20260;-39
2021/12/25 11:34:22;;;;;;;6.60;2.30;;;16.80;54.50;17.70;99877.00;;;;4951200;28;20270;-39
2021/12/25 11:36:51;;;;;;;5.93;2.50;;;16.70;54.50;17.70;99877.00;;;;4970995;28;20284;-39
2021/12/25 11:39:20;;;;;;;8.73;3.00;;;16.70;54.50;17.70;99895.00;;;;4971244;28;20239;-39
2021/12/25 11:41:47;;;;;;;6.73;2.80;;;16.70;54.40;17.60;99901.00;;;;4971585;28;20775;-40
2021/12/25 11:44:54;;;;;;;7.13;3.20;;;16.70;54.60;17.60;99889.00;;;;4971522;28;20199;-40
2021/12/25 11:47:42;;;;;;;7.40;3.40;;;16.70;54.80;17.60;99901.00;;;;4971048;28;20255;-40
2021/12/25 11:50:31;;;;;;;7.77;3.20;;;16.60;55.10;17.60;99895.00;;;;4971246;28;20204;-40
2021/12/25 11:53:13;;;;;;;5.87;3.00;;;16.60;55.70;17.50;99905.00;;;;4971178;28;20180;-39
2021/12/25 11:58:39;;;;;;;7.73;3.17;;;16.60;55.80;17.50;99904.00;;;;4970338;28;20540;-39
2021/12/25 12:01:29;;;;;;;8.97;3.17;;;16.60;55.80;17.50;99889.00;;;;4970089;28;20164;-39
2021/12/25 12:04:10;;;;;;;7.33;3.13;;;16.50;55.90;17.50;99891.00;;;;4971530;28;20268;-39
2021/12/25 12:06:45;;;;;;;7.00;3.10;;;16.50;55.90;17.50;99890.00;;;;4971541;28;20240;-39
2021/12/25 12:09:14;;;;;;;9.30;3.20;;;16.50;56.00;17.40;99871.00;;;;4971149;28;20278;-39
2021/12/25 12:11:43;;;;;;;6.60;2.67;;;16.50;56.00;17.40;99893.00;;;;4968384;28;20652;-39
2021/12/25 12:14:21;;;;;;;7.77;3.03;;;16.40;55.90;17.40;99886.00;;;;4954042;28;20192;-39
2021/12/25 12:16:56;;;;;;;7.70;2.90;;;16.40;55.90;17.40;99885.00;;;;4951906;28;20653;-39
2021/12/25 12:19:38;;;;;;;5.70;2.60;;;16.40;55.90;17.40;99880.00;;;;4970353;28;20544;-39